createdAt,value
2023-01-28T00:00:38.007Z,95.28
2023-01-28T00:03:04.451Z,95.87
2023-01-28T00:05:33.803Z,94.57
2023-01-28T00:08:00.259Z,94.06
2023-01-28T00:10:26.672Z,94.01
2023-01-28T00:12:53.140Z,94.25
2023-01-28T00:15:19.705Z,95.40
2023-01-28T00:17:46.155Z,96.35
2023-01-28T00:20:12.821Z,96.75
2023-01-28T00:22:39.296Z,97.56
2023-01-28T00:25:05.881Z,97.24
2023-01-28T00:27:32.644Z,96.24
2023-01-28T00:29:59.063Z,96.62
2023-01-28T00:32:25.565Z,97.52
2023-01-28T00:34:52.057Z,96.68
2023-01-28T00:37:20.812Z,95.33
2023-01-28T00:39:47.227Z,95.65
2023-01-28T00:42:13.698Z,94.20
2023-01-28T00:44:40.199Z,94.31
2023-01-28T00:47:06.625Z,94.58
2023-01-28T00:49:33.185Z,93.46
2023-01-28T00:51:59.715Z,94.06
2023-01-28T00:54:26.285Z,94.90
2023-01-28T00:56:55.383Z,95.22
2023-01-28T00:59:24.897Z,96.12
2023-01-28T01:01:52.793Z,95.79
2023-01-28T01:04:26.520Z,95.93
2023-01-28T01:06:53.672Z,95.79
2023-01-28T01:09:22.571Z,95.86
2023-01-28T01:11:49.091Z,96.20
2023-01-28T01:14:15.542Z,96.46
2023-01-28T01:16:41.958Z,95.89
2023-01-28T01:19:09.416Z,97.46
2023-01-28T01:21:36.340Z,97.17
2023-01-28T01:24:02.914Z,96.45
2023-01-28T01:26:29.965Z,96.83
2023-01-28T01:28:56.504Z,95.91
2023-01-28T01:31:25.758Z,95.97
2023-01-28T01:33:55.047Z,96.62
2023-01-28T01:36:24.949Z,95.90
2023-01-28T01:38:55.391Z,95.69
2023-01-28T01:41:27.386Z,95.10
2023-01-28T01:44:02.380Z,95.48
2023-01-28T01:46:50.924Z,95.75
2023-01-28T01:49:20.510Z,95.44
2023-01-28T01:51:51.223Z,94.72
2023-01-28T01:54:20.960Z,95.34
2023-01-28T01:56:50.792Z,95.42
2023-01-28T01:59:25.915Z,96.35
2023-01-28T02:01:55.380Z,95.49
2023-01-28T02:04:32.236Z,96.26
2023-01-28T02:07:01.504Z,96.42
2023-01-28T02:09:30.139Z,96.13
2023-01-28T02:12:08.912Z,95.18
2023-01-28T02:14:41.704Z,96.27
2023-01-28T02:17:08.276Z,95.62
2023-01-28T02:19:48.478Z,95.70
2023-01-28T02:22:26.320Z,96.56
2023-01-28T02:25:17.566Z,96.50
2023-01-28T02:28:16.466Z,96.48
2023-01-28T02:30:58.885Z,97.66
2023-01-28T02:33:49.068Z,99.56
2023-01-28T02:36:23.839Z,98.67
2023-01-28T02:38:52.883Z,98.88
2023-01-28T02:41:32.946Z,99.00
2023-01-28T02:44:02.818Z,99.38
2023-01-28T02:46:47.734Z,99.43
2023-01-28T02:49:27.749Z,98.51
2023-01-28T02:52:18.764Z,98.79
2023-01-28T02:54:45.166Z,99.56
2023-01-28T02:57:38.832Z,97.27
2023-01-28T03:00:28.175Z,97.91
2023-01-28T03:03:30.894Z,98.91
2023-01-28T03:06:08.843Z,99.15
2023-01-28T03:09:03.574Z,99.06
2023-01-28T03:11:53.163Z,97.78
2023-01-28T03:14:38.972Z,97.59
2023-01-28T03:17:30.812Z,97.50
2023-01-28T03:20:16.588Z,99.30
2023-01-28T03:23:07.959Z,99.06
2023-01-28T03:25:53.592Z,99.70
2023-01-28T03:28:40.919Z,98.92
2023-01-28T03:31:31.161Z,100.00
2023-01-28T03:34:21.193Z,99.53
2023-01-28T03:36:50.930Z,98.64
2023-01-28T03:39:19.193Z,98.16
2023-01-28T03:42:05.472Z,99.74
2023-01-28T03:44:50.804Z,100.00
2023-01-28T03:47:18.746Z,99.88
2023-01-28T03:49:51.360Z,98.69
2023-01-28T03:52:23.720Z,97.86
2023-01-28T03:54:52.782Z,97.42
2023-01-28T03:57:22.538Z,95.80
2023-01-28T03:59:52.834Z,96.52
2023-01-28T04:02:23.349Z,96.52
2023-01-28T04:04:50.570Z,97.53
2023-01-28T04:07:17.491Z,97.45
2023-01-28T04:09:44.581Z,97.05
2023-01-28T04:12:11.152Z,97.64
2023-01-28T04:14:39.304Z,97.86
2023-01-28T04:17:07.474Z,97.13
2023-01-28T04:19:37.276Z,97.19
2023-01-28T04:22:05.864Z,96.67
2023-01-28T04:24:35.255Z,96.80
2023-01-28T04:27:05.163Z,96.11
2023-01-28T04:29:34.361Z,95.95
2023-01-28T04:32:03.507Z,96.13
2023-01-28T04:34:29.959Z,96.46
2023-01-28T04:36:56.379Z,97.11
2023-01-28T04:39:22.802Z,96.17
2023-01-28T04:41:49.273Z,94.55
2023-01-28T04:44:17.204Z,95.07
2023-01-28T04:46:43.728Z,94.24
2023-01-28T04:49:10.282Z,93.87
2023-01-28T04:51:36.775Z,94.02
2023-01-28T04:54:06.867Z,93.85
2023-01-28T04:56:36.505Z,93.98
2023-01-28T04:59:05.748Z,93.29
2023-01-28T05:01:35.052Z,91.37
2023-01-28T05:04:05.489Z,91.47
2023-01-28T05:06:34.529Z,92.15
2023-01-28T05:09:00.963Z,92.64
2023-01-28T05:11:27.457Z,92.68
2023-01-28T05:13:55.191Z,91.52
2023-01-28T05:16:21.663Z,90.78
2023-01-28T05:18:48.253Z,91.42
2023-01-28T05:21:14.771Z,90.83
2023-01-28T05:23:41.209Z,91.14
2023-01-28T05:26:07.705Z,90.49
2023-01-28T05:28:38.424Z,91.10
2023-01-28T05:31:07.154Z,90.91
2023-01-28T05:33:36.265Z,90.69
2023-01-28T05:36:03.132Z,91.16
2023-01-28T05:38:29.720Z,91.54
2023-01-28T05:40:56.261Z,91.34
2023-01-28T05:43:22.815Z,91.23
2023-01-28T05:45:49.298Z,91.55
2023-01-28T05:48:16.313Z,91.15
2023-01-28T05:50:42.811Z,91.10
2023-01-28T05:53:09.559Z,90.74
2023-01-28T05:55:40.424Z,90.23
2023-01-28T05:58:11.206Z,89.97
2023-01-28T06:00:40.853Z,89.78
2023-01-28T06:03:10.982Z,90.54
2023-01-28T06:05:38.713Z,89.22
2023-01-28T06:08:09.131Z,88.91
2023-01-28T06:10:36.794Z,87.51
2023-01-28T06:13:03.219Z,88.41
2023-01-28T06:15:30.004Z,89.11
2023-01-28T06:17:56.492Z,89.12
2023-01-28T06:20:23.217Z,88.06
2023-01-28T06:22:53.037Z,89.03
2023-01-28T06:25:19.773Z,88.26
2023-01-28T06:27:46.262Z,89.30
2023-01-28T06:30:13.610Z,89.11
2023-01-28T06:32:40.394Z,89.38
2023-01-28T06:35:09.657Z,89.19
2023-01-28T06:37:39.669Z,89.90
2023-01-28T06:40:10.477Z,89.33
2023-01-28T06:42:40.779Z,90.13
2023-01-28T06:45:10.668Z,90.82
2023-01-28T06:47:40.480Z,90.71
2023-01-28T06:50:10.666Z,91.60
2023-01-28T06:52:41.843Z,91.81
2023-01-28T06:55:11.625Z,92.47
2023-01-28T06:57:41.926Z,92.88
2023-01-28T07:00:10.779Z,93.06
2023-01-28T07:02:40.330Z,93.92
2023-01-28T07:05:09.066Z,93.62
2023-01-28T07:07:41.644Z,94.65
2023-01-28T07:10:12.096Z,93.96
2023-01-28T07:12:41.394Z,94.82
2023-01-28T07:15:11.170Z,95.20
2023-01-28T07:17:42.454Z,95.66
2023-01-28T07:20:15.361Z,96.86
2023-01-28T07:22:43.740Z,96.89
2023-01-28T07:25:12.064Z,97.32
2023-01-28T07:27:53.539Z,97.18
2023-01-28T07:30:21.538Z,97.44
2023-01-28T07:32:54.589Z,97.24
2023-01-28T07:35:21.326Z,98.29
2023-01-28T07:37:59.009Z,99.23
2023-01-28T07:40:27.207Z,100.00
2023-01-28T07:42:55.631Z,99.80
2023-01-28T07:45:24.433Z,99.98
2023-01-28T07:47:59.176Z,100.00
2023-01-28T07:50:26.678Z,100.00
2023-01-28T07:52:53.701Z,100.00
2023-01-28T07:55:20.230Z,100.00
2023-01-28T07:57:55.176Z,100.00
2023-01-28T08:00:23.526Z,100.00
2023-01-28T08:02:50.442Z,100.00
2023-01-28T08:05:19.044Z,100.00
2023-01-28T08:07:46.761Z,100.00
2023-01-28T08:10:13.795Z,100.00
2023-01-28T08:12:40.927Z,100.00
2023-01-28T08:15:11.328Z,100.00
2023-01-28T08:17:41.323Z,100.00
2023-01-28T08:20:09.867Z,100.00
2023-01-28T08:22:39.620Z,100.00
2023-01-28T08:25:08.247Z,100.00
2023-01-28T08:27:34.762Z,100.00
2023-01-28T08:30:01.267Z,100.00
2023-01-28T08:32:29.894Z,100.00
2023-01-28T08:34:56.855Z,100.00
2023-01-28T08:37:23.822Z,100.00
2023-01-28T08:39:51.073Z,100.00
2023-01-28T08:42:17.623Z,100.00
2023-01-28T08:44:44.088Z,100.00
2023-01-28T08:47:10.536Z,100.00
2023-01-28T08:49:40.279Z,100.00
2023-01-28T08:52:09.598Z,100.00
2023-01-28T08:54:40.314Z,100.00
2023-01-28T08:57:09.922Z,100.00
2023-01-28T08:59:40.680Z,100.00
2023-01-28T09:02:29.238Z,100.00
2023-01-28T09:04:57.446Z,100.00
2023-01-28T09:07:23.935Z,100.00
2023-01-28T09:09:53.053Z,100.00
2023-01-28T09:12:20.816Z,100.00
2023-01-28T09:14:47.802Z,100.00
2023-01-28T09:17:14.675Z,100.00
2023-01-28T09:19:41.462Z,100.00
2023-01-28T09:22:08.991Z,100.00
2023-01-28T09:24:38.990Z,100.00
2023-01-28T09:27:06.216Z,100.00
2023-01-28T09:29:38.291Z,100.00
2023-01-28T09:32:08.932Z,100.00
2023-01-28T09:34:37.979Z,100.00
2023-01-28T09:37:04.411Z,100.00
2023-01-28T09:39:31.257Z,100.00
2023-01-28T09:42:15.939Z,100.00
2023-01-28T09:45:10.471Z,100.00
2023-01-28T09:47:55.583Z,100.00
2023-01-28T09:50:38.792Z,100.00
2023-01-28T09:53:34.935Z,100.00
2023-01-28T09:56:09.076Z,100.00
2023-01-28T09:58:37.866Z,100.00
2023-01-28T10:01:10.998Z,100.00
2023-01-28T10:04:13.767Z,100.00
2023-01-28T10:07:01.573Z,100.00
2023-01-28T10:09:41.470Z,100.00
2023-01-28T10:12:35.680Z,100.00
2023-01-28T10:15:40.812Z,100.00
2023-01-28T10:18:17.620Z,100.00
2023-01-28T10:20:56.367Z,100.00
2023-01-28T10:23:27.623Z,100.00
2023-01-28T10:25:57.797Z,100.00
2023-01-28T10:28:28.049Z,100.00
2023-01-28T10:30:54.984Z,100.00
2023-01-28T10:33:33.378Z,99.75
2023-01-28T10:36:00.927Z,99.14
2023-01-28T10:38:29.943Z,98.79
2023-01-28T10:41:02.703Z,98.87
2023-01-28T10:43:42.686Z,98.84
2023-01-28T10:46:16.117Z,98.20
2023-01-28T10:48:54.787Z,98.02
2023-01-28T10:51:31.966Z,97.71
2023-01-28T10:53:58.473Z,97.52
2023-01-28T10:56:31.173Z,98.16
2023-01-28T10:59:28.471Z,98.34
2023-01-28T11:01:59.827Z,98.23
2023-01-28T11:04:32.196Z,98.08
2023-01-28T11:07:10.574Z,97.85
2023-01-28T11:09:49.211Z,97.23
2023-01-28T11:12:27.098Z,95.74
2023-01-28T11:14:59.609Z,96.30
2023-01-28T11:17:29.455Z,96.34
2023-01-28T11:20:00.037Z,96.92
2023-01-28T11:22:34.608Z,96.34
2023-01-28T11:25:05.189Z,97.55
2023-01-28T11:27:33.667Z,97.34
2023-01-28T11:30:04.791Z,98.19
2023-01-28T11:32:31.896Z,96.49
2023-01-28T11:35:00.496Z,96.25
2023-01-28T11:37:29.253Z,94.80
2023-01-28T11:40:19.121Z,91.66
2023-01-28T11:42:50.065Z,89.90
2023-01-28T11:45:44.471Z,88.19
2023-01-28T11:48:23.394Z,84.88
2023-01-28T11:51:00.498Z,82.99
2023-01-28T11:53:51.367Z,79.82
2023-01-28T11:56:41.920Z,80.84
2023-01-28T11:59:23.333Z,78.60
2023-01-28T12:02:00.704Z,77.89
2023-01-28T12:04:47.162Z,78.47
2023-01-28T12:07:55.567Z,77.55
2023-01-28T12:10:38.011Z,78.81
2023-01-28T12:13:41.733Z,77.87
2023-01-28T12:16:32.081Z,78.00
2023-01-28T12:19:38.320Z,78.31
2023-01-28T12:22:38.444Z,77.87
2023-01-28T12:25:16.702Z,78.06
2023-01-28T12:27:50.470Z,78.47
2023-01-28T12:30:54.636Z,79.74
2023-01-28T12:33:48.636Z,77.76
2023-01-28T12:36:38.691Z,75.65
2023-01-28T12:39:17.189Z,76.39
2023-01-28T12:41:54.257Z,76.62
2023-01-28T12:44:31.453Z,76.05
2023-01-28T12:47:04.322Z,76.10
2023-01-28T12:49:52.961Z,75.62
2023-01-28T12:52:24.231Z,75.26
2023-01-28T12:55:13.190Z,75.48
2023-01-28T12:57:44.140Z,75.39
2023-01-28T13:00:44.392Z,75.40
2023-01-28T13:03:19.891Z,74.97
2023-01-28T13:05:52.456Z,75.48
2023-01-28T13:08:28.087Z,76.10
2023-01-28T13:10:58.212Z,75.46
2023-01-28T13:13:45.162Z,75.30
2023-01-28T13:16:13.653Z,75.75
2023-01-28T13:18:40.348Z,76.31
2023-01-28T13:21:16.731Z,76.54
2023-01-28T13:23:46.068Z,76.89
2023-01-28T13:26:18.548Z,80.44
2023-01-28T13:28:46.128Z,78.18
2023-01-28T13:31:17.500Z,77.43
2023-01-28T13:33:56.394Z,76.48
2023-01-28T13:36:32.876Z,76.93
2023-01-28T13:39:23.982Z,77.02
2023-01-28T13:41:53.635Z,76.89
2023-01-28T13:44:32.034Z,77.28
2023-01-28T13:47:21.835Z,77.87
2023-01-28T13:49:54.996Z,79.68
2023-01-28T13:52:28.942Z,77.16
2023-01-28T13:55:01.312Z,77.37
2023-01-28T13:57:42.897Z,77.84
2023-01-28T14:00:33.636Z,77.29
2023-01-28T14:03:03.064Z,77.82
2023-01-28T14:05:32.604Z,77.97
2023-01-28T14:08:20.489Z,77.80
2023-01-28T14:11:13.100Z,79.01
2023-01-28T14:13:49.873Z,78.04
2023-01-28T14:16:21.152Z,78.20
2023-01-28T14:18:49.204Z,78.40
2023-01-28T14:21:21.147Z,78.58
2023-01-28T14:23:53.643Z,78.07
2023-01-28T14:26:26.302Z,77.73
2023-01-28T14:29:21.626Z,78.42
2023-01-28T14:31:48.410Z,79.42
2023-01-28T14:34:24.098Z,79.07
2023-01-28T14:36:53.477Z,79.25
2023-01-28T14:39:26.383Z,79.42
2023-01-28T14:41:56.508Z,79.60
2023-01-28T14:44:29.114Z,79.74
2023-01-28T14:47:24.686Z,80.66
2023-01-28T14:49:59.819Z,79.75
2023-01-28T14:53:03.850Z,79.79
2023-01-28T14:55:49.360Z,80.63
2023-01-28T14:58:25.513Z,80.61
2023-01-28T15:00:59.164Z,80.92
2023-01-28T15:03:27.873Z,80.10
2023-01-28T15:06:22.510Z,80.74
2023-01-28T15:08:49.116Z,79.97
2023-01-28T15:11:21.684Z,80.28
2023-01-28T15:13:52.733Z,80.61
2023-01-28T15:16:24.080Z,80.28
2023-01-28T15:18:52.424Z,80.82
2023-01-28T15:21:20.997Z,80.99
2023-01-28T15:23:53.577Z,81.55
2023-01-28T15:26:27.573Z,81.38
2023-01-28T15:28:55.560Z,82.05
2023-01-28T15:31:35.677Z,81.95
2023-01-28T15:34:14.242Z,83.11
2023-01-28T15:36:55.360Z,82.74
2023-01-28T15:39:24.579Z,82.63
2023-01-28T15:42:01.870Z,82.01
2023-01-28T15:44:32.479Z,82.08
2023-01-28T15:47:00.893Z,82.15
2023-01-28T15:49:35.417Z,82.18
2023-01-28T15:52:02.215Z,82.73
2023-01-28T15:54:30.770Z,82.12
2023-01-28T15:56:57.492Z,83.14
2023-01-28T15:59:28.230Z,83.31
2023-01-28T16:02:22.369Z,83.49
2023-01-28T16:05:03.750Z,84.16
2023-01-28T16:07:35.919Z,84.58
2023-01-28T16:10:04.085Z,84.53
2023-01-28T16:12:30.630Z,85.03
2023-01-28T16:15:07.365Z,85.24
2023-01-28T16:17:42.319Z,85.04
2023-01-28T16:20:24.005Z,85.82
2023-01-28T16:22:52.817Z,86.85
2023-01-28T16:25:32.745Z,87.00
2023-01-28T16:28:01.086Z,87.71
2023-01-28T16:30:28.566Z,87.53
2023-01-28T16:32:55.712Z,87.70
2023-01-28T16:35:24.883Z,87.63
2023-01-28T16:37:51.449Z,88.50
2023-01-28T16:40:20.710Z,87.60
2023-01-28T16:42:50.868Z,88.47
2023-01-28T16:45:23.870Z,92.86
2023-01-28T16:47:51.691Z,90.38
2023-01-28T16:50:21.786Z,89.85
2023-01-28T16:52:50.973Z,89.80
2023-01-28T16:55:22.068Z,89.92
2023-01-28T16:57:53.077Z,88.01
2023-01-28T17:00:24.505Z,88.71
2023-01-28T17:02:52.519Z,88.55
2023-01-28T17:05:20.171Z,89.85
2023-01-28T17:07:50.530Z,90.20
2023-01-28T17:10:20.608Z,89.83
2023-01-28T17:12:50.260Z,89.58
2023-01-28T17:15:19.306Z,89.90
2023-01-28T17:17:55.501Z,89.53
2023-01-28T17:20:22.289Z,89.23
2023-01-28T17:22:51.550Z,89.78
2023-01-28T17:25:20.916Z,89.89
2023-01-28T17:27:51.629Z,90.26
2023-01-28T17:30:21.329Z,88.42
2023-01-28T17:32:53.134Z,88.55
2023-01-28T17:35:19.973Z,87.80
2023-01-28T17:37:46.456Z,87.83
2023-01-28T17:40:13.502Z,87.81
2023-01-28T17:42:40.100Z,88.57
2023-01-28T17:45:07.027Z,88.36
2023-01-28T17:47:33.538Z,88.12
2023-01-28T17:50:00.263Z,88.46
2023-01-28T17:52:26.786Z,89.34
2023-01-28T17:54:53.274Z,88.97
2023-01-28T17:57:24.212Z,87.32
2023-01-28T17:59:53.491Z,86.80
2023-01-28T18:02:22.747Z,86.89
2023-01-28T18:04:49.640Z,86.67
2023-01-28T18:07:16.336Z,86.03
2023-01-28T18:09:45.906Z,86.00
2023-01-28T18:12:24.647Z,85.41
2023-01-28T18:14:54.197Z,85.50
2023-01-28T18:17:29.555Z,85.69
2023-01-28T18:19:57.227Z,86.08
2023-01-28T18:22:24.039Z,86.11
2023-01-28T18:24:53.355Z,86.61
2023-01-28T18:27:22.013Z,86.91
2023-01-28T18:29:49.011Z,86.73
2023-01-28T18:32:15.759Z,86.66
2023-01-28T18:34:42.183Z,86.01
2023-01-28T18:37:09.955Z,84.83
2023-01-28T18:39:36.424Z,84.71
2023-01-28T18:42:05.815Z,85.33
2023-01-28T18:44:32.287Z,85.93
2023-01-28T18:46:58.895Z,85.50
2023-01-28T18:49:25.448Z,85.90
2023-01-28T18:51:53.200Z,86.09
2023-01-28T18:54:20.543Z,86.79
2023-01-28T18:56:48.246Z,86.29
2023-01-28T18:59:14.880Z,86.10
2023-01-28T19:01:42.731Z,86.07
2023-01-28T19:04:10.020Z,85.80
2023-01-28T19:06:36.715Z,87.25
2023-01-28T19:09:07.723Z,90.40
2023-01-28T19:11:35.010Z,85.89
2023-01-28T19:14:02.140Z,84.94
2023-01-28T19:16:28.946Z,83.30
2023-01-28T19:18:57.850Z,83.35
2023-01-28T19:21:26.464Z,83.87
2023-01-28T19:24:15.332Z,83.37
2023-01-28T19:26:42.728Z,83.30
2023-01-28T19:29:13.381Z,83.95
2023-01-28T19:31:41.663Z,83.71
2023-01-28T19:34:10.488Z,83.90
2023-01-28T19:36:37.573Z,82.88
2023-01-28T19:39:07.567Z,82.04
2023-01-28T19:41:34.544Z,81.62
2023-01-28T19:44:01.076Z,81.46
2023-01-28T19:46:27.876Z,81.64
2023-01-28T19:48:55.501Z,82.04
2023-01-28T19:51:25.265Z,82.52
2023-01-28T19:53:53.864Z,81.99
2023-01-28T19:56:24.747Z,81.92
2023-01-28T19:59:02.587Z,82.12
2023-01-28T20:01:30.547Z,81.84
2023-01-28T20:03:59.208Z,81.86
2023-01-28T20:06:28.032Z,81.69
2023-01-28T20:08:57.199Z,81.41
2023-01-28T20:11:27.485Z,82.33
2023-01-28T20:13:57.997Z,82.27
2023-01-28T20:16:30.032Z,82.55
2023-01-28T20:19:01.083Z,82.80
2023-01-28T20:21:29.528Z,82.13
2023-01-28T20:24:00.924Z,81.17
2023-01-28T20:26:37.636Z,81.60
2023-01-28T20:29:10.095Z,81.81
2023-01-28T20:31:38.049Z,82.77
2023-01-28T20:34:04.719Z,82.33
2023-01-28T20:36:31.253Z,82.85
2023-01-28T20:38:57.811Z,82.16
2023-01-28T20:41:48.536Z,81.72
2023-01-28T20:44:15.133Z,82.17
2023-01-28T20:46:41.738Z,81.49
2023-01-28T20:49:10.212Z,81.97
2023-01-28T20:51:38.203Z,81.23
2023-01-28T20:54:05.061Z,81.96
2023-01-28T20:56:31.824Z,80.67
2023-01-28T20:59:00.772Z,81.59
2023-01-28T21:01:30.078Z,81.65
2023-01-28T21:03:57.595Z,82.29
2023-01-28T21:06:28.291Z,82.53
2023-01-28T21:08:58.147Z,81.77
2023-01-28T21:11:26.421Z,80.32
2023-01-28T21:13:56.137Z,81.50
2023-01-28T21:16:23.177Z,82.40
2023-01-28T21:18:50.638Z,82.60
2023-01-28T21:21:21.832Z,82.98
2023-01-28T21:23:48.319Z,82.09
2023-01-28T21:26:17.629Z,80.43
2023-01-28T21:28:45.132Z,80.90
2023-01-28T21:31:16.267Z,80.51
2023-01-28T21:33:43.126Z,80.61
2023-01-28T21:36:14.609Z,81.23
2023-01-28T21:38:42.117Z,81.54
2023-01-28T21:41:09.492Z,80.86
2023-01-28T21:43:36.761Z,81.29
2023-01-28T21:46:03.888Z,81.64
2023-01-28T21:48:31.033Z,81.82
2023-01-28T21:51:23.552Z,82.05
2023-01-28T21:53:50.281Z,82.30
2023-01-28T21:56:17.819Z,81.50
2023-01-28T21:59:02.996Z,81.41
2023-01-28T22:01:29.773Z,80.93
2023-01-28T22:03:58.447Z,80.94
2023-01-28T22:06:27.468Z,80.91
2023-01-28T22:08:54.541Z,81.22
2023-01-28T22:11:21.423Z,81.13
2023-01-28T22:13:48.435Z,81.29
2023-01-28T22:16:15.433Z,81.57
2023-01-28T22:18:42.323Z,81.70
2023-01-28T22:21:12.724Z,81.94
2023-01-28T22:23:39.277Z,81.62
2023-01-28T22:26:06.260Z,81.45
2023-01-28T22:28:32.972Z,81.83
2023-01-28T22:31:12.466Z,81.23
2023-01-28T22:33:40.277Z,80.72
2023-01-28T22:36:11.315Z,81.86
2023-01-28T22:38:39.185Z,81.64
2023-01-28T22:41:07.439Z,82.38
2023-01-28T22:43:34.312Z,82.04
2023-01-28T22:46:02.027Z,82.69
2023-01-28T22:48:32.524Z,83.00
2023-01-28T22:51:03.512Z,83.70
2023-01-28T22:53:30.932Z,84.76
2023-01-28T22:55:59.976Z,84.73
2023-01-28T22:58:26.634Z,85.72
2023-01-28T23:00:53.184Z,85.80
2023-01-28T23:03:19.792Z,86.64
2023-01-28T23:05:46.418Z,87.56
2023-01-28T23:08:12.908Z,87.36
2023-01-28T23:10:46.934Z,87.94
2023-01-28T23:13:17.248Z,88.87
2023-01-28T23:16:08.961Z,88.58
2023-01-28T23:18:39.068Z,88.78
2023-01-28T23:21:44.944Z,88.66
2023-01-28T23:24:19.660Z,88.78
2023-01-28T23:26:57.251Z,88.91
2023-01-28T23:29:28.611Z,88.59
2023-01-28T23:32:02.328Z,89.17
2023-01-28T23:34:32.839Z,89.82
2023-01-28T23:36:59.264Z,89.56
2023-01-28T23:39:25.822Z,89.55
2023-01-28T23:41:52.416Z,89.61
2023-01-28T23:44:23.975Z,89.43
2023-01-28T23:46:50.473Z,90.11
2023-01-28T23:49:17.275Z,90.04
2023-01-28T23:51:44.105Z,89.41
2023-01-28T23:54:10.609Z,89.56
2023-01-28T23:56:37.959Z,89.36
2023-01-28T23:59:04.476Z,89.43
